Nearby METAR Reports

 

KVCT - Victoria, Texas, USA
Distance from station: E 12mi, 20km
Updated: 05/24/2024 7:51pm
Clear
Clear
 Wind from SSE
Wind: SSE 13 mph, 20 km/h
Temperature: 84°F, 29°C
Heat Index: 92°F, 33°C
Dew Point: 75°F, 24°C
Humidity: 74%
Barometer: 29.72 inHg, 1006.4 hPa
Clouds: Clear
Visibility: 9 miles, 14 km
2024/05/25 00:51 KVCT 250051Z 15011KT 9SM CLR 29/24 A2972 RMK AO2 SLP061 T02940244 $
KPKV - Port Lavaca, Texas, USA
Distance from station: ESE 31mi, 50km
Updated: 05/24/2024 8:03pm
Partly cloudy
Partly cloudy
 Wind from SSE
Wind: SSE 8 mph, 13 km/h
Temperature: 84°F, 29°C
Heat Index: 96°F, 36°C
Dew Point: 79°F, 26°C
Humidity: 84%
Barometer: 29.73 inHg, 1006.8 hPa
Clouds: Partly cloudy
Visibility: 7 miles, 11 km
Cloud details: Partly cloudy 1500 ft
2024/05/25 01:03 KPKV 250103Z AUTO 16007KT 7SM SCT015 29/26 A2973 RMK AO2
 
KT20 - Gonzales Muni, Texas, USA
Distance from station: NNW 50mi, 81km
Updated: 05/24/2024 7:55pm
Clear
Clear
 Wind from SSE
Wind: SSE 9 mph, 15 km/h, Gust: 16 mph, 26 km/h
Temperature: 88°F, 31°C
Heat Index: 100°F, 38°C
Dew Point: 77°F, 25°C
Humidity: 70%
Barometer: 29.69 inHg, 1005.4 hPa
Clouds: Clear
Visibility: 10 miles, 16 km
2024/05/25 00:55 KT20 250055Z AUTO 15008G14KT 10SM CLR 31/25 A2969 RMK AO2 T03140252
KBEA - Beeville Muni, Texas, USA
Distance from station: SW 51mi, 83km
Updated: 05/24/2024 7:55pm
Clear
Clear
 Wind from SE
Wind: SE 13 mph, 20 km/h, Gust: 21 mph, 33 km/h
Temperature: 86°F, 30°C
Heat Index: 93°F, 34°C
Dew Point: 73°F, 23°C
Humidity: 66%
Barometer: 29.69 inHg, 1005.4 hPa
Clouds: Clear
Visibility: 10 miles, 16 km
2024/05/25 00:55 KBEA 250055Z AUTO 14011G18KT 10SM CLR 30/23 A2969 RMK AO2 T02960225
 
KRKP - Rockport, Texas, USA
Distance from station: S 53mi, 86km
Updated: 05/24/2024 7:53pm

 
Barometer: 29.70 inHg, 1005.8 hPa
2024/05/25 00:53 KRKP 250053Z AUTO A2970 RMK AO2 SLP060 PWINO
KPSX - Palacios, Texas, USA
Distance from station: E 55mi, 88km
Updated: 05/24/2024 7:53pm
Partly cloudy
Partly cloudy
 Wind from SSE
Wind: SSE 16 mph, 26 km/h
Temperature: 82°F, 28°C
Heat Index: 91°F, 33°C
Dew Point: 79°F, 26°C
Humidity: 89%
Barometer: 29.72 inHg, 1006.4 hPa
Clouds: Partly cloudy
Visibility: 8 miles, 13 km
Cloud details: Partly cloudy 1400 ft
2024/05/25 00:53 KPSX 250053Z AUTO 15014KT 8SM SCT014 28/26 A2972 RMK AO2 SLP064 T02830261 $
 
KTFP - Ingleside/Tp Mcc, Texas, USA
Distance from station: S 65mi, 104km
Updated: 06/05/2023 4:35am
NOT Current
Thunderstorm, Partly cloudy
Thunderstorm, Partly cloudy
 Wind from W
Wind: W 10 mph, 17 km/h
Temperature: 75°F, 24°C
Dew Point: 73°F, 23°C
Humidity: 94%
Barometer: 29.85 inHg, 1010.8 hPa
Summary: Thunderstorm
Clouds: Partly cloudy
Visibility: 5 miles, 8 km
Cloud details: Partly cloudy 500 ft
Partly cloudy 1000 ft
Partly cloudy 1900 ft
2023/06/05 09:35 KTFP 050935Z AUTO 28009KT 5SM TS SCT005 SCT010 SCT019 24/23 A2985 RMK AO2 LTG DSNT ALQS P0012 T02400226
K66R - Columbus, Texas, USA
Distance from station: NE 66mi, 106km
Updated: 05/24/2024 7:55pm
Clear
Clear
 Wind from S
Wind: S 8 mph, 13 km/h
Temperature: 84°F, 29°C
Heat Index: 92°F, 33°C
Dew Point: 75°F, 24°C
Humidity: 74%
Barometer: 29.74 inHg, 1007.1 hPa
Clouds: Clear
Visibility: 10 miles, 16 km
2024/05/25 00:55 K66R 250055Z AUTO 17007KT 10SM CLR 29/24 A2974 RMK AO2 T02900236
 
KARM - Wharton, Texas, USA
Distance from station: ENE 66mi, 106km
Updated: 05/24/2024 7:55pm
Clear
Clear
 Wind from SSE
Wind: SSE 13 mph, 20 km/h, Gust: 17 mph, 28 km/h
Barometer: 29.73 inHg, 1006.8 hPa
Clouds: Clear
Visibility: 10 miles, 16 km
2024/05/25 00:55 KARM 250055Z AUTO 15011G15KT 10SM CLR A2973 RMK AO2 TSNO
KRAS - Port Aransas, Texas, USA
Distance from station: S 71mi, 115km
Updated: 05/24/2024 7:55pm
Haze, Partly cloudy
Haze, Partly cloudy
 Wind from SE
Wind: SE 17 mph, 28 km/h, Gust: 22 mph, 35 km/h
Temperature: 84°F, 29°C
Heat Index: 96°F, 36°C
Dew Point: 79°F, 26°C
Humidity: 84%
Barometer: 29.72 inHg, 1006.4 hPa
Summary: Haze
Clouds: Partly cloudy
Visibility: 7 miles, 11 km
Cloud details: Partly cloudy 1000 ft
2024/05/25 00:55 KRAS 250055Z AUTO 14015G19KT 7SM HZ SCT010 29/26 A2972 RMK AO2 T02900262
 
KELA - Eagle Lake, Texas, USA
Distance from station: NE 72mi, 115km
Updated: 05/24/2024 7:55pm
Clear
Clear
 Wind from S
Wind: S 10 mph, 17 km/h
Temperature: 82°F, 28°C
Heat Index: 87°F, 31°C
Dew Point: 73°F, 23°C
Humidity: 74%
Barometer: 29.73 inHg, 1006.8 hPa
Clouds: Clear
Visibility: 10 miles, 16 km
2024/05/25 00:55 KELA 250055Z AUTO 17009KT 10SM CLR 28/23 A2973 RMK AO2 T02770225
K3T5 - La Grange, Texas, USA
Distance from station: N 73mi, 118km
Updated: 05/24/2024 7:55pm
Clear
Clear
 Wind from SSE
Wind: SSE 9 mph, 15 km/h
Temperature: 86°F, 30°C
Heat Index: 102°F, 39°C
Dew Point: 81°F, 27°C
Humidity: 84%
Barometer: 29.70 inHg, 1005.8 hPa
Clouds: Clear
Visibility: 9 miles, 14 km
2024/05/25 00:55 K3T5 250055Z AUTO 15008KT 9SM CLR 30/27 A2970 RMK AO2 T03010268 $
 
KBYY - Bay City, Texas, USA
Distance from station: E 77mi, 124km
Updated: 05/24/2024 7:55pm
Mostly cloudy
Mostly cloudy
 Wind from S
Wind: S 9 mph, 15 km/h
Temperature: 82°F, 28°C
Heat Index: 90°F, 32°C
Dew Point: 77°F, 25°C
Humidity: 84%
Barometer: 29.75 inHg, 1007.5 hPa
Clouds: Mostly cloudy
Visibility: 10 miles, 16 km
Cloud details: Mostly cloudy 1600 ft
2024/05/25 00:55 KBYY 250055Z AUTO 17008KT 10SM BKN016 28/25 A2975 RMK AO2 T02840252
KCRP - Corpus Christi, Texas, USA
Distance from station: SSW 78mi, 126km
Updated: 05/24/2024 7:51pm
Mostly cloudy
Mostly cloudy
 Wind from SSE
Wind: SSE 14 mph, 22 km/h, Gust: 24 mph, 39 km/h
Temperature: 84°F, 29°C
Heat Index: 96°F, 36°C
Dew Point: 79°F, 26°C
Humidity: 84%
Barometer: 29.70 inHg, 1005.8 hPa
Clouds: Mostly cloudy
Visibility: 10 miles, 16 km
Cloud details: Mostly cloudy 25000 ft
2024/05/25 00:51 KCRP 250051Z 15012G21KT 10SM BKN250 29/26 A2970 RMK AO2 PK WND 16027/0002 SLP055 T02940261
 
KNGP - C. Christi Nas, Texas, USA
Distance from station: S 81mi, 130km
Updated: 05/24/2024 7:56pm
Partly cloudy
Partly cloudy
 Wind from SE
Wind: SE 18 mph, 30 km/h, Gust: 30 mph, 48 km/h
Temperature: 88°F, 31°C
Heat Index: 106°F, 41°C
Dew Point: 81°F, 27°C
Humidity: 79%
Barometer: 29.70 inHg, 1005.8 hPa
Clouds: Partly cloudy
Visibility: 7 miles, 11 km
Cloud details: Partly cloudy 1200 ft
2024/05/25 00:56 KNGP 250056Z AUTO 14016G26KT 7SM SCT012 31/27 A2970 RMK AO2 PK WND 14028/0022 SLP057 T03060267 $
KRBO - Robstown/Nueces, Texas, USA
Distance from station: SSW 81mi, 130km
Updated: 05/24/2024 7:50pm
Clear
Clear
 Wind from SE
Wind: SE 14 mph, 22 km/h, Gust: 17 mph, 28 km/h
Temperature: 86°F, 30°C
Heat Index: 99°F, 37°C
Dew Point: 79°F, 26°C
Humidity: 79%
Barometer: 29.71 inHg, 1006.1 hPa
Clouds: Clear
Visibility: 10 miles, 16 km
2024/05/25 00:50 KRBO 250050Z AUTO 14012G15KT 10SM CLR 30/26 A2971 RMK AO2 T02970255
 
KBAZ - New Braunfels, Texas, USA
Distance from station: NW 81mi, 131km
Updated: 05/24/2024 7:51pm
Mostly cloudy
Mostly cloudy
 Wind from SSE
Wind: SSE 14 mph, 22 km/h
Temperature: 91°F, 33°C
Heat Index: 104°F, 40°C
Dew Point: 77°F, 25°C
Humidity: 63%
Barometer: 29.67 inHg, 1004.7 hPa
Clouds: Mostly cloudy
Visibility: 10 miles, 16 km
Cloud details: Mostly cloudy 5500 ft
2024/05/25 00:51 KBAZ 250051Z AUTO 15012KT 10SM BKN055 33/25 A2967 RMK AO2 SLP036 T03330250
KRND - Randolph Afb, Texas, USA
Distance from station: NW 82mi, 132km
Updated: 05/24/2024 7:55pm
Few Clouds
Few Clouds
 Wind from SSE
Wind: SSE 13 mph, 20 km/h
Temperature: 93°F, 34°C
Heat Index: 105°F, 41°C
Dew Point: 75°F, 24°C
Humidity: 56%
Barometer: 29.65 inHg, 1004.1 hPa
Clouds: Few Clouds
Visibility: 10 miles, 16 km
Cloud details: Few Clouds 5000 ft
2024/05/25 00:55 KRND 250055Z AUTO 15011KT 10SM FEW050 34/24 A2965 RMK AO2 SLP030 T03380240 $
 
KHYI - San Marcos, Texas, USA
Distance from station: NNW 84mi, 135km
Updated: 05/24/2024 7:56pm
Clear
Clear
 Wind from SSE
Wind: SSE 12 mph, 19 km/h
Temperature: 90°F, 32°C
Heat Index: 104°F, 40°C
Dew Point: 77°F, 25°C
Humidity: 67%
Barometer: 29.69 inHg, 1005.4 hPa
Clouds: Clear
Visibility: 10 miles, 16 km
2024/05/25 00:56 KHYI 250056Z 15010KT 10SM CLR 32/25 A2969 RMK AO2 SLP047 T03220250
KPEZ - Pleasanton Muni, Texas, USA
Distance from station: W 84mi, 135km
Updated: 05/24/2024 7:55pm
Clear
Clear
 Wind from SE
Wind: SE 12 mph, 19 km/h, Gust: 20 mph, 31 km/h
Temperature: 93°F, 34°C
Heat Index: 107°F, 42°C
Dew Point: 77°F, 25°C
Humidity: 59%
Barometer: 29.68 inHg, 1005.1 hPa
Clouds: Clear
Visibility: 10 miles, 16 km
2024/05/25 00:55 KPEZ 250055Z AUTO 13010G17KT 10SM CLR 34/25 A2968 RMK AO2 T03440251